createdAt,value
2022-07-25T00:02:05.513Z,75.20
2022-07-25T00:04:44.535Z,74.70
2022-07-25T00:07:32.749Z,72.70
2022-07-25T00:10:13.838Z,72.70
2022-07-25T00:12:42.151Z,75.10
2022-07-25T00:18:40.682Z,72.70
2022-07-25T00:21:41.889Z,73.70
2022-07-25T00:24:28.852Z,74.20
2022-07-25T00:27:02.853Z,74.60
2022-07-25T00:29:33.566Z,74.30
2022-07-25T00:32:14.130Z,75.60
2022-07-25T00:34:59.946Z,75.80
2022-07-25T00:37:36.755Z,76.00
2022-07-25T00:40:05.755Z,74.90
2022-07-25T00:42:38.695Z,73.20
2022-07-25T00:45:21.487Z,73.40
2022-07-25T00:47:49.992Z,76.10
2022-07-25T00:50:19.933Z,77.00
2022-07-25T00:52:48.752Z,75.80
2022-07-25T00:55:17.020Z,74.60
2022-07-25T00:58:04.949Z,76.10
2022-07-25T01:00:45.952Z,77.00
2022-07-25T01:03:43.393Z,76.40
2022-07-25T01:06:29.108Z,76.50
2022-07-25T01:08:58.195Z,75.20
2022-07-25T01:11:29.862Z,77.30
2022-07-25T01:13:59.161Z,74.70
2022-07-25T01:16:27.272Z,75.50
2022-07-25T01:18:55.219Z,78.40
2022-07-25T01:21:25.774Z,76.40
2022-07-25T01:23:53.817Z,77.50
2022-07-25T01:26:21.744Z,77.90
2022-07-25T01:28:49.831Z,79.80
2022-07-25T01:31:17.891Z,79.00
2022-07-25T01:33:46.238Z,77.70
2022-07-25T01:36:14.167Z,79.70
2022-07-25T01:38:43.484Z,77.00
2022-07-25T01:41:11.425Z,77.40
2022-07-25T01:43:39.373Z,78.50
2022-07-25T01:46:07.663Z,79.30
2022-07-25T01:48:35.698Z,76.60
2022-07-25T01:51:03.596Z,79.50
2022-07-25T01:53:32.291Z,80.30
2022-07-25T01:56:02.831Z,78.10
2022-07-25T01:58:31.375Z,77.90
2022-07-25T02:00:59.315Z,80.20
2022-07-25T02:03:33.131Z,79.20
2022-07-25T02:06:02.819Z,82.10
2022-07-25T02:08:31.233Z,81.80
2022-07-25T02:11:01.176Z,81.40
2022-07-25T02:13:29.138Z,81.00
2022-07-25T02:15:57.307Z,80.50
2022-07-25T02:18:25.150Z,81.10
2022-07-25T02:20:53.005Z,82.20
2022-07-25T02:23:20.902Z,81.30
2022-07-25T02:34:48.275Z,81.90
2022-07-25T02:37:16.124Z,83.70
2022-07-25T02:39:44.011Z,79.80
2022-07-25T02:42:11.844Z,79.40
2022-07-25T02:44:39.690Z,81.20
2022-07-25T02:47:07.635Z,80.70
2022-07-25T02:49:35.619Z,84.30
2022-07-25T02:52:05.262Z,84.30
2022-07-25T02:54:33.116Z,83.90
2022-07-25T02:57:00.986Z,83.80
2022-07-25T02:59:32.409Z,85.30
2022-07-25T03:02:00.540Z,82.10
2022-07-25T03:04:28.488Z,84.80
2022-07-25T03:06:56.414Z,85.50
2022-07-25T03:09:25.695Z,86.10
2022-07-25T03:11:53.770Z,85.60
2022-07-25T03:14:21.591Z,87.20
2022-07-25T03:16:49.465Z,87.50
2022-07-25T03:19:17.588Z,87.50
2022-07-25T03:21:46.080Z,87.30
2022-07-25T03:24:13.952Z,84.80
2022-07-25T03:26:43.264Z,87.40
2022-07-25T03:29:11.153Z,86.60
2022-07-25T03:31:39.867Z,87.10
2022-07-25T03:34:08.298Z,87.70
2022-07-25T03:36:36.612Z,88.90
2022-07-25T03:39:05.464Z,89.70
2022-07-25T03:41:34.059Z,89.70
2022-07-25T03:44:03.709Z,90.40
2022-07-25T03:46:31.974Z,90.10
2022-07-25T03:49:00.015Z,88.50
2022-07-25T03:51:27.913Z,90.30
2022-07-25T03:54:05.273Z,89.10
2022-07-25T03:56:43.452Z,89.30
2022-07-25T03:59:15.840Z,91.10
2022-07-25T04:01:44.853Z,90.10
2022-07-25T04:04:13.317Z,87.80
2022-07-25T04:06:42.064Z,90.00
2022-07-25T04:09:11.371Z,90.80
2022-07-25T04:11:39.662Z,89.80
2022-07-25T04:14:08.302Z,89.70
2022-07-25T04:16:37.755Z,89.20
2022-07-25T04:19:08.695Z,90.10
2022-07-25T04:21:36.813Z,89.30
2022-07-25T04:24:05.147Z,90.80
2022-07-25T04:26:33.443Z,90.40
2022-07-25T04:29:03.474Z,88.20
2022-07-25T04:31:31.439Z,90.50
2022-07-25T04:34:01.342Z,89.40
2022-07-25T04:36:29.823Z,88.50
2022-07-25T04:38:57.693Z,91.10
2022-07-25T04:41:25.766Z,92.00
2022-07-25T04:43:54.727Z,90.70
2022-07-25T04:46:23.939Z,91.70
2022-07-25T04:48:52.966Z,92.60
2022-07-25T04:51:22.373Z,90.50
2022-07-25T04:53:50.321Z,91.90
2022-07-25T04:56:18.251Z,90.80
2022-07-25T04:58:46.220Z,90.40
2022-07-25T05:01:14.196Z,90.80
2022-07-25T05:03:50.303Z,90.50
2022-07-25T05:06:18.788Z,90.90
2022-07-25T05:08:48.187Z,91.70
2022-07-25T05:11:16.178Z,91.30
2022-07-25T05:13:47.156Z,90.50
2022-07-25T05:16:15.433Z,90.00
2022-07-25T05:18:43.550Z,89.40
2022-07-25T05:21:12.488Z,88.60
2022-07-25T05:23:40.601Z,87.40
2022-07-25T05:26:09.862Z,87.70
2022-07-25T05:28:37.795Z,85.80
2022-07-25T05:31:05.957Z,86.00
2022-07-25T05:33:35.153Z,85.20
2022-07-25T05:36:05.135Z,83.80
2022-07-25T05:38:35.739Z,84.10
2022-07-25T05:41:16.731Z,82.20
2022-07-25T05:43:46.979Z,81.30
2022-07-25T05:46:17.757Z,80.30
2022-07-25T05:48:46.461Z,79.30
2022-07-25T05:51:14.408Z,78.80
2022-07-25T05:53:42.763Z,72.10
2022-07-25T05:56:10.700Z,73.40
2022-07-25T05:58:40.911Z,74.20
2022-07-25T06:01:09.114Z,70.10
2022-07-25T06:03:37.001Z,73.00
2022-07-25T06:06:05.205Z,72.20
2022-07-25T06:08:33.867Z,71.60
2022-07-25T06:11:03.947Z,69.40
2022-07-25T06:13:32.896Z,68.50
2022-07-25T06:16:04.131Z,67.80
2022-07-25T06:18:32.130Z,67.60
2022-07-25T06:21:00.408Z,66.70
2022-07-25T06:23:28.477Z,66.40
2022-07-25T06:25:57.180Z,63.50
2022-07-25T06:28:25.154Z,62.30
2022-07-25T06:30:53.145Z,61.70
2022-07-25T06:33:22.734Z,61.30
2022-07-25T06:35:50.637Z,62.10
2022-07-25T06:38:18.576Z,60.30
2022-07-25T06:40:46.610Z,58.70
2022-07-25T06:43:14.803Z,58.10
2022-07-25T06:45:47.942Z,56.10
2022-07-25T06:48:16.078Z,55.00
2022-07-25T06:50:45.724Z,54.30
2022-07-25T06:53:13.763Z,52.80
2022-07-25T06:55:41.703Z,53.60
2022-07-25T06:58:10.203Z,51.40
2022-07-25T07:00:45.125Z,50.00
2022-07-25T07:03:13.096Z,49.10
2022-07-25T07:05:43.241Z,48.40
2022-07-25T07:08:14.103Z,45.40
2022-07-25T07:10:42.665Z,48.30
2022-07-25T07:13:12.719Z,45.90
2022-07-25T07:15:49.125Z,39.80
2022-07-25T07:18:17.596Z,48.30
2022-07-25T07:20:45.624Z,45.10
2022-07-25T07:23:17.097Z,42.00
2022-07-25T07:25:47.097Z,44.50
2022-07-25T07:28:15.990Z,46.40
2022-07-25T07:31:15.607Z,39.70
2022-07-25T07:33:33.550Z,40.30
2022-07-25T07:36:01.849Z,39.30
2022-07-25T07:38:31.176Z,40.70
2022-07-25T07:40:59.102Z,38.90
2022-07-25T07:43:30.026Z,40.60
2022-07-25T07:46:00.606Z,33.60
2022-07-25T07:48:29.207Z,33.00
2022-07-25T07:50:57.282Z,38.90
2022-07-25T07:53:45.737Z,35.40
2022-07-25T07:56:14.205Z,41.10
2022-07-25T07:58:42.165Z,33.40
2022-07-25T08:01:11.179Z,32.20
2022-07-25T08:03:39.293Z,37.80
2022-07-25T08:06:07.697Z,34.30
2022-07-25T08:08:35.696Z,33.10
2022-07-25T08:11:03.670Z,37.10
2022-07-25T08:13:34.200Z,36.10
2022-07-25T08:16:04.339Z,37.10
2022-07-25T08:18:33.717Z,38.80
2022-07-25T08:21:05.448Z,34.50
2022-07-25T08:23:34.655Z,38.40
2022-07-25T08:26:04.041Z,29.20
2022-07-25T08:28:33.525Z,33.70
2022-07-25T08:31:01.874Z,37.00
2022-07-25T08:33:29.954Z,30.30
2022-07-25T08:36:01.492Z,35.20
2022-07-25T08:38:30.059Z,31.80
2022-07-25T08:40:59.677Z,33.20
2022-07-25T08:43:29.220Z,29.40
2022-07-25T08:46:01.114Z,28.40
2022-07-25T08:48:29.695Z,34.10
2022-07-25T08:50:58.196Z,28.50
2022-07-25T08:53:33.302Z,27.40
2022-07-25T08:56:06.654Z,31.80
2022-07-25T08:58:38.792Z,32.60
2022-07-25T09:01:08.231Z,29.10
2022-07-25T09:03:36.614Z,32.40
2022-07-25T09:06:15.713Z,27.70
2022-07-25T09:08:52.900Z,30.70
2022-07-25T09:11:32.186Z,28.30
2022-07-25T09:14:01.925Z,25.30
2022-07-25T09:16:40.154Z,30.60
2022-07-25T09:19:13.188Z,25.20
2022-07-25T09:21:42.317Z,27.30
2022-07-25T09:24:12.735Z,26.60
2022-07-25T09:26:48.683Z,24.70
2022-07-25T09:29:22.372Z,26.20
2022-07-25T09:31:52.743Z,25.30
2022-07-25T09:34:36.290Z,25.10
2022-07-25T09:37:06.370Z,27.70
2022-07-25T09:39:35.917Z,26.10
2022-07-25T09:42:14.954Z,25.80
2022-07-25T09:44:42.959Z,25.70
2022-07-25T09:47:16.407Z,26.00
2022-07-25T09:49:47.435Z,27.60
2022-07-25T09:52:17.245Z,26.80
2022-07-25T09:54:45.467Z,26.30
2022-07-25T09:57:13.446Z,26.00
